createdAt,value
2023-02-24T00:00:56.809Z,0.00
2023-02-24T00:01:56.829Z,0.00
2023-02-24T00:02:56.794Z,0.00
2023-02-24T00:03:56.815Z,0.00
2023-02-24T00:04:56.771Z,0.00
2023-02-24T00:05:56.748Z,0.00
2023-02-24T00:06:56.747Z,0.00
2023-02-24T00:07:56.732Z,0.00
2023-02-24T00:08:56.721Z,0.00
2023-02-24T00:09:56.728Z,0.00
2023-02-24T00:10:56.693Z,0.00
2023-02-24T00:11:56.704Z,0.00
2023-02-24T00:12:56.670Z,0.00
2023-02-24T00:13:56.666Z,0.00
2023-02-24T00:14:56.659Z,0.00
2023-02-24T00:15:56.680Z,0.00
2023-02-24T00:16:56.736Z,0.00
2023-02-24T00:17:56.610Z,0.00
2023-02-24T00:18:56.608Z,0.00
2023-02-24T00:19:56.602Z,0.00
2023-02-24T00:20:56.590Z,0.00
2023-02-24T00:21:56.571Z,0.00
2023-02-24T00:22:56.559Z,0.00
2023-02-24T00:23:56.543Z,0.00
2023-02-24T00:24:56.547Z,0.00
2023-02-24T00:25:56.524Z,0.00
2023-02-24T00:26:56.529Z,0.00
2023-02-24T00:27:56.518Z,0.00
2023-02-24T00:28:56.491Z,0.00
2023-02-24T00:29:56.488Z,0.00
2023-02-24T00:30:56.535Z,0.00
2023-02-24T00:31:56.753Z,0.00
2023-02-24T00:32:56.512Z,0.00
2023-02-24T00:33:56.434Z,0.00
2023-02-24T00:34:56.436Z,0.00
2023-02-24T00:35:56.414Z,0.00
2023-02-24T00:36:56.419Z,0.00
2023-02-24T00:37:56.392Z,0.00
2023-02-24T00:38:56.394Z,0.00
2023-02-24T00:39:56.371Z,0.00
2023-02-24T00:40:56.372Z,0.00
2023-02-24T00:41:56.355Z,0.00
2023-02-24T00:42:56.348Z,0.00
2023-02-24T00:43:56.347Z,0.00
2023-02-24T00:44:56.355Z,0.00
2023-02-24T00:45:56.355Z,0.00
2023-02-24T00:46:56.305Z,0.00
2023-02-24T00:47:56.283Z,0.00
2023-02-24T00:48:56.275Z,0.00
2023-02-24T00:49:56.285Z,0.00
2023-02-24T00:50:56.262Z,0.00
2023-02-24T00:51:56.237Z,0.00
2023-02-24T00:52:56.233Z,0.00
2023-02-24T00:53:56.237Z,0.00
2023-02-24T00:54:56.208Z,0.00
2023-02-24T00:55:56.203Z,0.00
2023-02-24T00:56:56.186Z,0.00
2023-02-24T00:57:56.190Z,0.00
2023-02-24T00:58:56.164Z,0.00
2023-02-24T00:59:56.174Z,0.00
2023-02-24T01:00:56.148Z,0.00
2023-02-24T01:01:56.162Z,0.00
2023-02-24T01:02:56.128Z,0.00
2023-02-24T01:03:56.134Z,0.00
2023-02-24T01:04:56.104Z,0.00
2023-02-24T01:05:56.094Z,0.00
2023-02-24T01:06:56.071Z,0.00
2023-02-24T01:07:56.057Z,0.00
2023-02-24T01:08:56.053Z,0.00
2023-02-24T01:09:56.059Z,0.00
2023-02-24T01:10:56.049Z,0.00
2023-02-24T01:11:56.095Z,0.00
2023-02-24T01:12:56.004Z,0.00
2023-02-24T01:13:56.005Z,0.00
2023-02-24T01:14:55.979Z,0.00
2023-02-24T01:15:56.095Z,0.00
2023-02-24T01:16:55.979Z,0.00
2023-02-24T01:17:55.949Z,0.00
2023-02-24T01:18:55.940Z,0.00
2023-02-24T01:19:55.925Z,0.00
2023-02-24T01:20:55.918Z,0.00
2023-02-24T01:21:55.909Z,0.00
2023-02-24T01:22:55.914Z,0.00
2023-02-24T01:23:55.888Z,0.00
2023-02-24T01:24:55.866Z,0.00
2023-02-24T01:25:55.859Z,0.00
2023-02-24T01:26:55.845Z,0.00
2023-02-24T01:27:55.861Z,0.00
2023-02-24T01:28:55.822Z,0.00
2023-02-24T01:29:55.813Z,0.00
2023-02-24T01:30:55.976Z,0.00
2023-02-24T01:31:56.024Z,0.00
2023-02-24T01:32:55.943Z,0.00
2023-02-24T01:33:55.776Z,0.00
2023-02-24T01:34:55.758Z,0.00
2023-02-24T01:35:55.758Z,0.00
2023-02-24T01:36:55.741Z,0.00
2023-02-24T01:37:55.730Z,0.00
2023-02-24T01:38:55.749Z,0.00
2023-02-24T01:39:55.719Z,0.00
2023-02-24T01:40:55.695Z,0.00
2023-02-24T01:41:55.690Z,0.00
2023-02-24T01:42:55.671Z,0.00
2023-02-24T01:43:55.664Z,0.00
2023-02-24T01:44:55.672Z,0.00
2023-02-24T01:45:55.641Z,0.00
2023-02-24T01:46:55.701Z,0.00
2023-02-24T01:47:55.642Z,0.00
2023-02-24T01:48:55.606Z,0.00
2023-02-24T01:49:55.603Z,0.00
2023-02-24T01:50:55.609Z,0.00
2023-02-24T01:51:55.578Z,0.00
2023-02-24T01:52:55.560Z,0.00
2023-02-24T01:53:55.557Z,0.00
2023-02-24T01:54:55.554Z,0.00
2023-02-24T01:55:55.537Z,0.00
2023-02-24T01:56:55.535Z,0.00
2023-02-24T01:57:55.510Z,0.00
2023-02-24T01:58:55.494Z,0.00
2023-02-24T01:59:55.501Z,0.00
2023-02-24T02:00:55.478Z,0.00
2023-02-24T02:01:55.618Z,0.00
2023-02-24T02:02:55.467Z,0.00
2023-02-24T02:03:55.473Z,0.00
2023-02-24T02:04:55.430Z,0.00
2023-02-24T02:05:55.432Z,0.00
2023-02-24T02:06:55.429Z,0.00
2023-02-24T02:07:55.403Z,0.00
2023-02-24T02:08:55.387Z,0.00
2023-02-24T02:09:55.396Z,0.00
2023-02-24T02:10:55.371Z,0.00
2023-02-24T02:11:55.357Z,0.00
2023-02-24T02:12:55.357Z,0.00
2023-02-24T02:13:55.434Z,0.00
2023-02-24T02:14:55.323Z,0.00
2023-02-24T02:15:55.334Z,0.00
2023-02-24T02:16:55.313Z,0.00
2023-02-24T02:17:55.298Z,0.00
2023-02-24T02:18:55.277Z,0.00
2023-02-24T02:19:55.290Z,0.00
2023-02-24T02:20:55.253Z,0.00
2023-02-24T02:21:55.257Z,0.00
2023-02-24T02:22:55.256Z,0.00
2023-02-24T02:23:55.231Z,0.00
2023-02-24T02:24:55.221Z,0.00
2023-02-24T02:25:55.205Z,0.00
2023-02-24T02:26:55.196Z,0.00
2023-02-24T02:27:55.181Z,0.00
2023-02-24T02:28:55.178Z,0.00
2023-02-24T02:29:55.159Z,0.00
2023-02-24T02:30:55.169Z,0.00
2023-02-24T02:31:55.420Z,0.00
2023-02-24T02:32:55.248Z,0.00
2023-02-24T02:33:55.118Z,0.00
2023-02-24T02:34:55.102Z,0.00
2023-02-24T02:35:55.112Z,0.00
2023-02-24T02:36:55.089Z,0.00
2023-02-24T02:37:55.094Z,0.00
2023-02-24T02:38:55.061Z,0.00
2023-02-24T02:39:55.048Z,0.00
2023-02-24T02:40:55.037Z,0.00
2023-02-24T02:41:55.038Z,0.00
2023-02-24T02:42:55.032Z,0.00
2023-02-24T02:43:55.008Z,0.00
2023-02-24T02:44:54.993Z,0.00
2023-02-24T02:45:55.005Z,0.00
2023-02-24T02:46:54.975Z,0.00
2023-02-24T02:47:54.967Z,0.00
2023-02-24T02:48:54.950Z,0.00
2023-02-24T02:49:54.951Z,0.00
2023-02-24T02:50:54.988Z,0.00
2023-02-24T02:51:54.947Z,0.00
2023-02-24T02:52:54.897Z,0.00
2023-02-24T02:53:54.913Z,0.00
2023-02-24T02:54:54.874Z,0.00
2023-02-24T02:55:54.864Z,0.00
2023-02-24T02:56:54.856Z,0.00
2023-02-24T02:57:54.863Z,0.00
2023-02-24T02:58:54.846Z,0.00
2023-02-24T02:59:54.822Z,0.00
2023-02-24T03:00:54.834Z,0.00
2023-02-24T03:01:54.799Z,0.00
2023-02-24T03:02:54.790Z,0.00
2023-02-24T03:03:54.779Z,0.00
2023-02-24T03:05:02.362Z,0.00
2023-02-24T03:05:54.753Z,0.00
2023-02-24T03:06:54.751Z,0.00
2023-02-24T03:07:54.758Z,0.00
2023-02-24T03:08:54.717Z,0.00
2023-02-24T03:09:54.727Z,0.00
2023-02-24T03:10:54.698Z,0.00
2023-02-24T03:11:54.704Z,0.00
2023-02-24T03:12:54.686Z,0.00
2023-02-24T03:13:54.697Z,0.00
2023-02-24T03:14:54.649Z,0.00
2023-02-24T03:15:54.665Z,0.00
2023-02-24T03:16:54.682Z,0.00
2023-02-24T03:17:54.646Z,0.00
2023-02-24T03:18:54.608Z,0.00
2023-02-24T03:19:54.596Z,0.00
2023-02-24T03:20:54.589Z,0.00
2023-02-24T03:21:54.578Z,0.00
2023-02-24T03:22:54.581Z,0.00
2023-02-24T03:23:54.622Z,0.00
2023-02-24T03:24:54.545Z,0.00
2023-02-24T03:25:54.557Z,0.00
2023-02-24T03:26:54.519Z,0.00
2023-02-24T03:27:54.538Z,0.00
2023-02-24T03:28:54.498Z,0.00
2023-02-24T03:29:54.508Z,0.00
2023-02-24T03:30:54.597Z,0.00
2023-02-24T03:31:54.612Z,0.00
2023-02-24T03:32:54.725Z,0.00
2023-02-24T03:33:54.454Z,0.00
2023-02-24T03:34:54.443Z,0.00
2023-02-24T03:35:54.427Z,0.00
2023-02-24T03:36:54.452Z,0.00
2023-02-24T03:37:54.409Z,0.00
2023-02-24T03:38:54.409Z,0.00
2023-02-24T03:39:54.410Z,0.00
2023-02-24T03:40:54.370Z,0.00
2023-02-24T03:41:54.361Z,0.00
2023-02-24T03:42:54.369Z,0.00
2023-02-24T03:43:54.342Z,0.00
2023-02-24T03:44:54.328Z,0.00
2023-02-24T03:45:54.355Z,0.00
2023-02-24T03:46:54.308Z,0.00
2023-02-24T03:47:54.357Z,0.00
2023-02-24T03:48:54.290Z,0.00
2023-02-24T03:49:54.275Z,0.00
2023-02-24T03:50:54.262Z,0.00
2023-02-24T03:51:54.263Z,0.00
2023-02-24T03:52:54.232Z,0.00
2023-02-24T03:53:54.221Z,0.00
2023-02-24T03:54:54.246Z,0.00
2023-02-24T03:55:54.218Z,0.00
2023-02-24T03:56:54.190Z,0.00
2023-02-24T03:57:54.181Z,0.00
2023-02-24T03:58:54.187Z,0.00
2023-02-24T03:59:54.155Z,0.00
2023-02-24T04:00:54.143Z,0.00
2023-02-24T04:01:54.137Z,0.00
2023-02-24T04:02:54.124Z,0.00
2023-02-24T04:03:54.140Z,0.00
2023-02-24T04:04:54.141Z,0.00
2023-02-24T04:05:54.108Z,0.00
2023-02-24T04:06:56.192Z,0.00
2023-02-24T04:07:54.071Z,0.00
2023-02-24T04:08:54.063Z,0.00
2023-02-24T04:09:54.055Z,0.00
2023-02-24T04:10:54.047Z,0.00
2023-02-24T04:11:54.046Z,0.00
2023-02-24T04:12:54.115Z,0.00
2023-02-24T04:13:54.001Z,0.00
2023-02-24T04:14:54.017Z,0.00
2023-02-24T04:15:54.025Z,0.00
2023-02-24T04:16:53.973Z,0.00
2023-02-24T04:17:53.966Z,0.00
2023-02-24T04:18:53.947Z,0.00
2023-02-24T04:19:53.972Z,0.00
2023-02-24T04:20:53.927Z,0.00
2023-02-24T04:21:53.922Z,0.00
2023-02-24T04:22:53.903Z,0.00
2023-02-24T04:23:53.891Z,0.00
2023-02-24T04:24:53.895Z,0.00
2023-02-24T04:25:53.918Z,0.00
2023-02-24T04:26:53.870Z,0.00
2023-02-24T04:27:53.870Z,0.00
2023-02-24T04:28:53.847Z,0.00
2023-02-24T04:29:53.827Z,0.00
2023-02-24T04:30:53.994Z,0.00
2023-02-24T04:31:54.052Z,0.00
2023-02-24T04:32:53.821Z,0.00
2023-02-24T04:33:53.781Z,0.00
2023-02-24T04:34:53.766Z,0.00
2023-02-24T04:35:53.817Z,0.00
2023-02-24T04:36:53.764Z,0.00
2023-02-24T04:37:53.741Z,0.00
2023-02-24T04:38:53.725Z,0.00
2023-02-24T04:39:53.726Z,0.00
2023-02-24T04:40:53.737Z,0.00
2023-02-24T04:41:53.704Z,0.00
2023-02-24T04:42:53.681Z,0.00
2023-02-24T04:43:53.696Z,0.00
2023-02-24T04:44:53.669Z,0.00
2023-02-24T04:45:53.650Z,0.00
2023-02-24T04:46:53.644Z,0.00
2023-02-24T04:47:53.640Z,0.00
2023-02-24T04:48:53.629Z,0.00
2023-02-24T04:49:53.609Z,0.00
2023-02-24T04:50:53.609Z,0.00
2023-02-24T04:51:53.624Z,0.00
2023-02-24T04:52:53.565Z,0.00
2023-02-24T04:53:53.577Z,0.00
2023-02-24T04:54:53.555Z,0.00
2023-02-24T04:55:53.542Z,0.00
2023-02-24T04:56:53.535Z,0.00
2023-02-24T04:57:53.532Z,0.00
2023-02-24T04:58:53.509Z,0.00
2023-02-24T04:59:53.520Z,0.00
2023-02-24T05:00:53.506Z,0.00
2023-02-24T05:01:53.479Z,0.00
2023-02-24T05:02:53.464Z,0.00
2023-02-24T05:03:53.534Z,0.00
2023-02-24T05:04:53.448Z,0.00
2023-02-24T05:05:53.430Z,0.00
2023-02-24T05:06:53.415Z,0.00
2023-02-24T05:07:53.418Z,0.00
2023-02-24T05:08:53.419Z,0.00
2023-02-24T05:09:53.385Z,0.00
2023-02-24T05:10:53.374Z,0.00
2023-02-24T05:11:53.384Z,0.00
2023-02-24T05:12:53.352Z,0.00
2023-02-24T05:13:53.360Z,0.00
2023-02-24T05:14:53.360Z,0.00
2023-02-24T05:15:53.403Z,0.00
2023-02-24T05:16:53.322Z,0.00
2023-02-24T05:17:53.331Z,0.00
2023-02-24T05:18:53.286Z,0.00
2023-02-24T05:19:53.297Z,0.00
2023-02-24T05:20:53.261Z,0.00
2023-02-24T05:21:53.287Z,0.00
2023-02-24T05:22:53.249Z,0.00
2023-02-24T05:23:53.237Z,0.00
2023-02-24T05:24:53.232Z,0.00
2023-02-24T05:25:53.230Z,0.00
2023-02-24T05:26:53.209Z,0.00
2023-02-24T05:27:53.191Z,0.00
2023-02-24T05:28:53.180Z,0.00
2023-02-24T05:29:55.180Z,0.00
2023-02-24T05:30:53.280Z,0.00
2023-02-24T05:31:53.291Z,0.00
2023-02-24T05:32:53.141Z,0.00
2023-02-24T05:33:53.121Z,0.00
2023-02-24T05:34:53.122Z,0.00
2023-02-24T05:35:53.113Z,0.00
2023-02-24T05:36:53.088Z,0.00
2023-02-24T05:37:53.071Z,0.00
2023-02-24T05:38:55.537Z,0.00
2023-02-24T05:39:53.335Z,0.00
2023-02-24T05:40:53.064Z,0.00
2023-02-24T05:41:53.026Z,0.00
2023-02-24T05:42:53.017Z,0.00
2023-02-24T05:43:53.045Z,0.00
2023-02-24T05:44:53.022Z,0.00
2023-02-24T05:45:53.016Z,0.00
2023-02-24T05:46:53.157Z,0.00
2023-02-24T05:47:52.981Z,0.00
2023-02-24T05:48:52.950Z,0.00
2023-02-24T05:49:52.934Z,0.00
2023-02-24T05:50:52.937Z,0.00
2023-02-24T05:51:52.916Z,0.00
2023-02-24T05:52:52.910Z,0.00
2023-02-24T05:53:52.891Z,0.00
2023-02-24T05:54:52.890Z,0.00
2023-02-24T05:55:52.912Z,0.00
2023-02-24T05:56:52.863Z,0.00
2023-02-24T05:57:52.845Z,0.00
2023-02-24T05:58:54.740Z,0.00
2023-02-24T05:59:52.829Z,0.00
2023-02-24T06:00:52.853Z,0.00
2023-02-24T06:01:52.852Z,0.00
2023-02-24T06:02:52.849Z,0.00
2023-02-24T06:03:52.810Z,0.00
2023-02-24T06:04:52.771Z,0.00
2023-02-24T06:05:52.754Z,0.00
2023-02-24T06:06:52.798Z,0.00
2023-02-24T06:07:52.735Z,0.00
2023-02-24T06:08:52.728Z,0.00
2023-02-24T06:09:52.736Z,4.00
2023-02-24T06:10:52.744Z,0.00
2023-02-24T06:11:52.775Z,0.00
2023-02-24T06:12:55.073Z,0.00
2023-02-24T06:13:52.686Z,4.00
2023-02-24T06:14:52.662Z,0.00
2023-02-24T06:15:52.647Z,4.00
2023-02-24T06:16:52.646Z,4.00
2023-02-24T06:17:52.626Z,4.00
2023-02-24T06:18:52.614Z,4.00
2023-02-24T06:19:52.625Z,0.00
2023-02-24T06:20:52.595Z,4.00
2023-02-24T06:21:52.588Z,4.00
2023-02-24T06:22:52.582Z,0.00
2023-02-24T06:23:52.575Z,4.00
2023-02-24T06:24:52.551Z,8.00
2023-02-24T06:25:52.535Z,8.00
2023-02-24T06:26:52.530Z,12.00
2023-02-24T06:27:52.519Z,8.00
2023-02-24T06:28:52.519Z,8.00
2023-02-24T06:29:52.527Z,4.00
2023-02-24T06:30:52.584Z,8.00
2023-02-24T06:31:52.626Z,8.00
2023-02-24T06:32:52.534Z,8.00
2023-02-24T06:33:52.462Z,8.00
2023-02-24T06:34:52.487Z,8.00
2023-02-24T06:35:52.447Z,8.00
2023-02-24T06:36:52.417Z,8.00
2023-02-24T06:37:52.449Z,8.00
2023-02-24T06:38:52.422Z,12.00
2023-02-24T06:39:52.388Z,12.00
2023-02-24T06:40:52.400Z,12.00
2023-02-24T06:41:52.364Z,16.00
2023-02-24T06:42:52.356Z,16.00
2023-02-24T06:43:52.367Z,16.00
2023-02-24T06:44:52.351Z,16.00
2023-02-24T06:45:52.399Z,12.00
2023-02-24T06:46:52.307Z,16.00
2023-02-24T06:47:52.310Z,16.00
2023-02-24T06:48:52.282Z,16.00
2023-02-24T06:49:52.274Z,16.00
2023-02-24T06:50:52.310Z,20.00
2023-02-24T06:51:52.276Z,20.00
2023-02-24T06:52:52.241Z,24.00
2023-02-24T06:53:52.268Z,24.00
2023-02-24T06:54:52.225Z,24.00
2023-02-24T06:55:52.225Z,24.00
2023-02-24T06:56:52.206Z,28.00
2023-02-24T06:57:52.181Z,28.00
2023-02-24T06:58:52.223Z,28.00
2023-02-24T06:59:52.184Z,32.00
2023-02-24T07:00:52.223Z,32.00
2023-02-24T07:01:52.163Z,36.00
2023-02-24T07:02:52.135Z,40.00
2023-02-24T07:03:52.223Z,44.00
2023-02-24T07:04:52.121Z,48.00
2023-02-24T07:05:52.111Z,44.00
2023-02-24T07:06:52.119Z,44.00
2023-02-24T07:07:52.091Z,44.00
2023-02-24T07:08:52.081Z,40.00
2023-02-24T07:09:52.046Z,44.00
2023-02-24T07:10:52.044Z,44.00
2023-02-24T07:11:52.041Z,40.00
2023-02-24T07:12:52.049Z,44.00
2023-02-24T07:13:52.009Z,52.00
2023-02-24T07:14:51.999Z,56.00
2023-02-24T07:15:51.991Z,60.00
2023-02-24T07:16:52.025Z,68.00
2023-02-24T07:17:51.984Z,68.00
2023-02-24T07:18:51.997Z,68.00
2023-02-24T07:19:51.941Z,68.00
2023-02-24T07:20:51.933Z,68.00
2023-02-24T07:21:51.917Z,64.00
2023-02-24T07:22:51.912Z,64.00
2023-02-24T07:23:51.952Z,60.00
2023-02-24T07:24:51.901Z,60.00
2023-02-24T07:25:51.878Z,68.00
2023-02-24T07:26:51.939Z,72.00
2023-02-24T07:27:51.852Z,76.00
2023-02-24T07:28:51.848Z,84.00
2023-02-24T07:29:53.292Z,88.00
2023-02-24T07:30:51.949Z,92.00
2023-02-24T07:31:52.035Z,92.00
2023-02-24T07:32:51.851Z,80.00
2023-02-24T07:33:51.788Z,80.00
2023-02-24T07:34:51.777Z,76.00
2023-02-24T07:35:51.759Z,72.00
2023-02-24T07:36:51.777Z,72.00
2023-02-24T07:37:51.780Z,72.00
2023-02-24T07:38:51.746Z,76.00
2023-02-24T07:39:51.769Z,88.00
2023-02-24T07:40:51.709Z,96.00
2023-02-24T07:41:51.728Z,100.00
2023-02-24T07:42:51.717Z,100.00
2023-02-24T07:43:51.715Z,88.00
2023-02-24T07:44:51.745Z,80.00
2023-02-24T07:45:51.736Z,76.00
2023-02-24T07:46:51.663Z,68.00
2023-02-24T07:47:51.662Z,68.00
2023-02-24T07:48:51.615Z,68.00
2023-02-24T07:49:51.603Z,76.00
2023-02-24T07:50:51.621Z,88.00
2023-02-24T07:51:51.580Z,96.00
2023-02-24T07:52:51.601Z,104.00
2023-02-24T07:53:52.354Z,108.00
2023-02-24T07:54:51.564Z,104.00
2023-02-24T07:55:51.570Z,108.00
2023-02-24T07:56:51.524Z,104.00
2023-02-24T07:57:51.555Z,96.00
2023-02-24T07:58:51.530Z,104.00
2023-02-24T07:59:51.514Z,116.00
2023-02-24T08:00:51.482Z,128.00
2023-02-24T08:01:51.482Z,140.00
2023-02-24T08:02:51.606Z,144.00
2023-02-24T08:03:51.459Z,140.00
2023-02-24T08:04:51.648Z,144.00
2023-02-24T08:05:51.479Z,140.00
2023-02-24T08:06:51.413Z,132.00
2023-02-24T08:07:51.421Z,136.00
2023-02-24T08:08:51.425Z,152.00
2023-02-24T08:09:51.390Z,164.00
2023-02-24T08:10:51.374Z,184.00
2023-02-24T08:11:51.387Z,200.00
2023-02-24T08:12:51.376Z,200.00
2023-02-24T08:13:51.331Z,196.00
2023-02-24T08:14:51.616Z,200.00
2023-02-24T08:15:51.335Z,204.00
2023-02-24T08:16:51.307Z,208.00
2023-02-24T08:17:51.328Z,232.00
2023-02-24T08:18:51.283Z,256.00
2023-02-24T08:19:51.274Z,272.00
2023-02-24T08:20:51.271Z,284.00
2023-02-24T08:21:51.245Z,284.00
2023-02-24T08:22:51.242Z,276.00
2023-02-24T08:23:51.224Z,280.00
2023-02-24T08:24:51.222Z,284.00
2023-02-24T08:25:51.209Z,296.00
2023-02-24T08:26:51.200Z,328.00
2023-02-24T08:28:05.166Z,360.00
2023-02-24T08:28:52.173Z,372.00
2023-02-24T08:29:51.160Z,376.00
2023-02-24T08:30:51.309Z,368.00
2023-02-24T08:31:51.266Z,320.00
2023-02-24T08:32:51.175Z,324.00
2023-02-24T08:33:51.137Z,276.00
2023-02-24T08:34:51.107Z,268.00
2023-02-24T08:35:51.108Z,268.00
2023-02-24T08:36:51.084Z,264.00
2023-02-24T08:37:51.108Z,272.00
2023-02-24T08:38:51.061Z,276.00
2023-02-24T08:39:51.051Z,248.00
2023-02-24T08:40:51.047Z,232.00
2023-02-24T08:41:51.025Z,200.00
2023-02-24T08:42:51.014Z,196.00
2023-02-24T08:43:51.024Z,188.00
2023-02-24T08:44:51.000Z,196.00
2023-02-24T08:45:50.996Z,200.00
2023-02-24T08:46:51.072Z,208.00
2023-02-24T08:47:50.957Z,204.00
2023-02-24T08:48:50.955Z,180.00
2023-02-24T08:49:50.968Z,164.00
2023-02-24T08:50:50.928Z,152.00
2023-02-24T08:51:50.915Z,152.00
2023-02-24T08:52:50.927Z,160.00
2023-02-24T08:53:50.900Z,192.00
2023-02-24T08:54:50.907Z,212.00
2023-02-24T08:55:50.897Z,236.00
2023-02-24T08:56:50.894Z,228.00
2023-02-24T08:57:53.418Z,200.00
2023-02-24T08:58:50.845Z,192.00
2023-02-24T08:59:50.861Z,192.00
2023-02-24T09:00:50.871Z,196.00
2023-02-24T09:02:02.736Z,224.00
2023-02-24T09:02:51.808Z,248.00
2023-02-24T09:03:50.785Z,256.00
2023-02-24T09:04:50.779Z,268.00
2023-02-24T09:05:58.352Z,268.00
2023-02-24T09:06:53.780Z,276.00
2023-02-24T09:07:50.752Z,260.00
2023-02-24T09:08:50.767Z,240.00
2023-02-24T09:09:50.740Z,252.00
2023-02-24T09:10:50.722Z,268.00
2023-02-24T09:11:50.715Z,276.00
2023-02-24T09:12:50.702Z,272.00
2023-02-24T09:13:50.698Z,252.00
2023-02-24T09:14:50.729Z,240.00
2023-02-24T09:15:50.691Z,224.00
2023-02-24T09:16:50.648Z,232.00
2023-02-24T09:17:50.645Z,252.00
2023-02-24T09:18:50.653Z,248.00
2023-02-24T09:19:50.607Z,252.00
2023-02-24T09:20:50.609Z,264.00
2023-02-24T09:21:50.590Z,260.00
2023-02-24T09:22:50.583Z,240.00
2023-02-24T09:23:50.589Z,264.00
2023-02-24T09:24:50.558Z,292.00
2023-02-24T09:25:51.312Z,308.00
2023-02-24T09:26:50.531Z,308.00
2023-02-24T09:27:50.523Z,292.00
2023-02-24T09:28:50.560Z,304.00
2023-02-24T09:29:50.517Z,320.00
2023-02-24T09:30:50.516Z,348.00
2023-02-24T09:31:50.775Z,348.00
2023-02-24T09:32:50.705Z,376.00
2023-02-24T09:33:50.491Z,356.00
2023-02-24T09:34:50.445Z,348.00
2023-02-24T09:35:50.450Z,364.00
2023-02-24T09:36:50.435Z,328.00
2023-02-24T09:37:50.410Z,340.00
2023-02-24T09:38:50.400Z,332.00
2023-02-24T09:39:50.405Z,368.00
2023-02-24T09:40:50.377Z,348.00
2023-02-24T09:41:50.363Z,336.00
2023-02-24T09:42:50.363Z,320.00
2023-02-24T09:43:50.338Z,304.00
2023-02-24T09:44:50.327Z,280.00
2023-02-24T09:45:50.478Z,268.00
2023-02-24T09:46:50.362Z,260.00
2023-02-24T09:47:50.315Z,296.00
2023-02-24T09:48:50.291Z,312.00
2023-02-24T09:49:50.312Z,320.00
2023-02-24T09:51:02.586Z,344.00
2023-02-24T09:51:51.247Z,420.00
2023-02-24T09:52:52.177Z,440.00
2023-02-24T09:53:50.227Z,472.00
2023-02-24T09:54:50.212Z,568.00
2023-02-24T09:55:50.213Z,652.00
2023-02-24T09:56:50.200Z,584.00
2023-02-24T09:57:50.182Z,604.00
2023-02-24T09:58:50.165Z,548.00
2023-02-24T09:59:50.164Z,560.00
2023-02-24T10:00:50.221Z,604.00
2023-02-24T10:01:50.147Z,592.00
2023-02-24T10:02:50.124Z,620.00
2023-02-24T10:03:50.139Z,584.00
2023-02-24T10:04:50.102Z,480.00
2023-02-24T10:05:50.093Z,508.00
2023-02-24T10:06:50.114Z,412.00
2023-02-24T10:07:50.071Z,392.00
2023-02-24T10:08:50.064Z,408.00
2023-02-24T10:09:50.055Z,444.00
2023-02-24T10:10:50.038Z,420.00
2023-02-24T10:11:50.040Z,420.00
2023-02-24T10:12:50.014Z,428.00
2023-02-24T10:13:50.071Z,440.00
2023-02-24T10:14:51.443Z,420.00
2023-02-24T10:15:50.155Z,368.00
2023-02-24T10:16:51.007Z,328.00
2023-02-24T10:17:49.974Z,340.00
2023-02-24T10:18:49.947Z,340.00
2023-02-24T10:19:49.959Z,312.00
2023-02-24T10:20:49.966Z,308.00
2023-02-24T10:21:49.992Z,300.00
2023-02-24T10:22:49.929Z,292.00
2023-02-24T10:23:54.871Z,292.00
2023-02-24T10:24:49.904Z,324.00
2023-02-24T10:25:49.887Z,332.00
2023-02-24T10:27:00.116Z,324.00
2023-02-24T10:27:50.864Z,260.00
2023-02-24T10:28:49.837Z,236.00
2023-02-24T10:29:49.829Z,232.00
2023-02-24T10:30:49.950Z,288.00
2023-02-24T10:31:50.014Z,328.00
2023-02-24T10:32:49.869Z,328.00
2023-02-24T10:33:49.790Z,316.00
2023-02-24T10:34:49.796Z,300.00
2023-02-24T10:35:49.798Z,256.00
2023-02-24T10:36:49.750Z,288.00
2023-02-24T10:37:49.754Z,288.00
2023-02-24T10:38:49.733Z,324.00
2023-02-24T10:39:51.896Z,360.00
2023-02-24T10:40:49.700Z,352.00
2023-02-24T10:41:49.779Z,324.00
2023-02-24T10:42:49.710Z,340.00
2023-02-24T10:43:49.735Z,380.00
2023-02-24T10:45:01.199Z,388.00
2023-02-24T10:45:50.701Z,436.00
2023-02-24T10:46:49.775Z,412.00
2023-02-24T10:47:49.651Z,332.00
2023-02-24T10:48:49.639Z,288.00
2023-02-24T10:49:49.629Z,296.00
2023-02-24T10:50:55.969Z,316.00
2023-02-24T10:51:50.603Z,348.00
2023-02-24T10:52:49.574Z,380.00
2023-02-24T10:53:49.596Z,420.00
2023-02-24T10:54:49.575Z,408.00
2023-02-24T10:55:49.540Z,356.00
2023-02-24T10:56:49.526Z,356.00
2023-02-24T10:57:58.500Z,296.00
2023-02-24T10:58:50.537Z,320.00
2023-02-24T10:59:49.558Z,312.00
2023-02-24T11:00:49.483Z,344.00
2023-02-24T11:01:49.643Z,352.00
2023-02-24T11:02:49.497Z,344.00
2023-02-24T11:03:49.454Z,336.00
2023-02-24T11:04:49.472Z,304.00
2023-02-24T11:05:49.426Z,312.00
2023-02-24T11:06:49.419Z,336.00
2023-02-24T11:07:49.423Z,316.00
2023-02-24T11:08:49.389Z,344.00
2023-02-24T11:09:49.382Z,360.00
2023-02-24T11:10:49.376Z,376.00
2023-02-24T11:11:49.375Z,392.00
2023-02-24T11:12:53.567Z,364.00
2023-02-24T11:13:49.345Z,352.00
2023-02-24T11:14:49.327Z,312.00
2023-02-24T11:15:49.358Z,268.00
2023-02-24T11:16:49.300Z,244.00
2023-02-24T11:17:49.359Z,220.00
2023-02-24T11:18:49.273Z,244.00
2023-02-24T11:19:49.314Z,300.00
2023-02-24T11:20:50.114Z,316.00
2023-02-24T11:21:49.250Z,348.00
2023-02-24T11:22:49.250Z,336.00
2023-02-24T11:23:49.243Z,340.00
2023-02-24T11:24:49.210Z,336.00
2023-02-24T11:25:49.205Z,328.00
2023-02-24T11:26:49.189Z,300.00
2023-02-24T11:27:49.188Z,296.00
2023-02-24T11:28:49.178Z,300.00
2023-02-24T11:29:49.180Z,308.00
2023-02-24T11:30:49.286Z,324.00
2023-02-24T11:31:49.320Z,312.00
2023-02-24T11:32:49.183Z,288.00
2023-02-24T11:33:49.114Z,244.00
2023-02-24T11:34:49.103Z,224.00
2023-02-24T11:35:49.108Z,228.00
2023-02-24T11:36:49.087Z,236.00
2023-02-24T11:37:49.067Z,260.00
2023-02-24T11:38:49.218Z,256.00
2023-02-24T11:39:49.082Z,272.00
2023-02-24T11:40:49.051Z,296.00
2023-02-24T11:41:49.045Z,260.00
2023-02-24T11:42:49.024Z,216.00
2023-02-24T11:43:49.016Z,172.00
2023-02-24T11:44:48.992Z,160.00
2023-02-24T11:45:48.992Z,168.00
2023-02-24T11:46:48.983Z,196.00
2023-02-24T11:47:48.974Z,200.00
2023-02-24T11:48:49.001Z,200.00
2023-02-24T11:49:48.950Z,204.00
2023-02-24T11:50:48.935Z,208.00
2023-02-24T11:51:48.939Z,192.00
2023-02-24T11:52:48.939Z,192.00
2023-02-24T11:53:48.900Z,188.00
2023-02-24T11:54:48.905Z,164.00
2023-02-24T11:55:48.892Z,152.00
2023-02-24T11:56:48.877Z,164.00
2023-02-24T11:57:48.856Z,176.00
2023-02-24T11:58:48.882Z,220.00
2023-02-24T11:59:48.827Z,240.00
2023-02-24T12:00:48.811Z,240.00
2023-02-24T12:01:48.816Z,248.00
2023-02-24T12:02:48.959Z,280.00
2023-02-24T12:03:48.799Z,280.00
2023-02-24T12:04:48.769Z,228.00
2023-02-24T12:05:48.851Z,188.00
2023-02-24T12:06:48.746Z,192.00
2023-02-24T12:07:48.759Z,208.00
2023-02-24T12:08:48.738Z,220.00
2023-02-24T12:09:48.734Z,216.00
2023-02-24T12:10:48.711Z,200.00
2023-02-24T12:11:48.723Z,188.00
2023-02-24T12:12:48.683Z,192.00
2023-02-24T12:13:48.679Z,216.00
2023-02-24T12:14:48.669Z,224.00
2023-02-24T12:15:48.767Z,244.00
2023-02-24T12:16:48.664Z,260.00
2023-02-24T12:17:48.649Z,276.00
2023-02-24T12:18:48.630Z,244.00
2023-02-24T12:19:48.629Z,228.00
2023-02-24T12:20:48.593Z,240.00
2023-02-24T12:21:48.583Z,240.00
2023-02-24T12:22:48.596Z,212.00
2023-02-24T12:23:48.569Z,240.00
2023-02-24T12:24:48.546Z,236.00
2023-02-24T12:25:48.538Z,224.00
2023-02-24T12:26:48.528Z,228.00
2023-02-24T12:27:48.561Z,268.00
2023-02-24T12:28:48.519Z,292.00
2023-02-24T12:29:48.512Z,268.00
2023-02-24T12:30:48.626Z,228.00
2023-02-24T12:31:48.634Z,220.00
2023-02-24T12:32:48.613Z,228.00
2023-02-24T12:33:48.450Z,228.00
2023-02-24T12:34:48.620Z,252.00
2023-02-24T12:35:48.430Z,272.00
2023-02-24T12:36:48.420Z,300.00
2023-02-24T12:37:48.431Z,280.00
2023-02-24T12:38:48.390Z,228.00
2023-02-24T12:39:48.383Z,188.00
2023-02-24T12:40:48.378Z,168.00
2023-02-24T12:41:48.381Z,160.00
2023-02-24T12:42:48.358Z,160.00
2023-02-24T12:43:48.358Z,204.00
2023-02-24T12:44:48.321Z,216.00
2023-02-24T12:45:48.386Z,240.00
2023-02-24T12:46:48.297Z,276.00
2023-02-24T12:47:48.299Z,348.00
2023-02-24T12:48:48.302Z,284.00
2023-02-24T12:49:48.270Z,284.00
2023-02-24T12:50:48.271Z,208.00
2023-02-24T12:51:48.249Z,168.00
2023-02-24T12:52:48.232Z,212.00
2023-02-24T12:53:48.243Z,232.00
2023-02-24T12:54:48.212Z,220.00
2023-02-24T12:55:48.208Z,164.00